createdAt,value
2023-02-15T00:00:02.646Z,102526.97
2023-02-15T00:02:29.275Z,102521.50
2023-02-15T00:04:57.274Z,102520.75
2023-02-15T00:07:24.414Z,102521.97
2023-02-15T00:09:51.029Z,102531.81
2023-02-15T00:12:20.169Z,102522.06
2023-02-15T00:14:46.800Z,102521.81
2023-02-15T00:17:13.442Z,102516.91
2023-02-15T00:19:41.106Z,102524.31
2023-02-15T00:22:13.904Z,102522.22
2023-02-15T00:24:40.611Z,102519.78
2023-02-15T00:27:07.295Z,102522.63
2023-02-15T00:29:34.177Z,102516.16
2023-02-15T00:32:00.908Z,102518.81
2023-02-15T00:34:28.663Z,102518.63
2023-02-15T00:36:55.422Z,102514.31
2023-02-15T00:39:22.363Z,102515.41
2023-02-15T00:41:49.027Z,102507.75
2023-02-15T00:44:16.197Z,102511.41
2023-02-15T00:46:43.006Z,102504.66
2023-02-15T00:49:13.818Z,102500.00
2023-02-15T00:51:40.623Z,102492.97
2023-02-15T00:54:07.611Z,102492.41
2023-02-15T00:56:34.388Z,102495.28
2023-02-15T00:59:01.030Z,102495.72
2023-02-15T01:01:27.815Z,102492.97
2023-02-15T01:03:54.548Z,102495.81
2023-02-15T01:06:21.346Z,102486.94
2023-02-15T01:08:48.339Z,102493.94
2023-02-15T01:11:23.005Z,102490.50
2023-02-15T01:13:55.257Z,102487.13
2023-02-15T01:16:22.566Z,102488.16
2023-02-15T01:18:49.471Z,102490.75
2023-02-15T01:21:18.094Z,102487.22
2023-02-15T01:23:44.925Z,102480.69
2023-02-15T01:26:11.552Z,102479.78
2023-02-15T01:28:38.834Z,102470.13
2023-02-15T01:31:13.954Z,102468.03
2023-02-15T01:33:40.802Z,102464.22
2023-02-15T01:36:07.563Z,102465.91
2023-02-15T01:38:35.598Z,102467.22
2023-02-15T01:41:21.024Z,102459.84
2023-02-15T01:43:50.056Z,102450.66
2023-02-15T01:46:19.092Z,102446.03
2023-02-15T01:48:48.860Z,102443.78
2023-02-15T01:51:19.973Z,102450.44
2023-02-15T01:53:55.326Z,102440.44
2023-02-15T01:56:24.989Z,102435.09
2023-02-15T01:58:54.526Z,102442.38
2023-02-15T02:01:21.393Z,102435.81
2023-02-15T02:04:12.108Z,102429.25
2023-02-15T02:06:40.047Z,102427.19
2023-02-15T02:09:07.118Z,102426.41
2023-02-15T02:11:34.365Z,102423.09
2023-02-15T02:14:01.069Z,102415.84
2023-02-15T02:16:52.545Z,102416.75
2023-02-15T02:19:40.699Z,102415.84
2023-02-15T02:22:22.312Z,102419.03
2023-02-15T02:25:10.428Z,102415.44
2023-02-15T02:28:05.924Z,102417.72
2023-02-15T02:30:57.943Z,102410.94
2023-02-15T02:33:34.708Z,102409.22
2023-02-15T02:36:18.595Z,102398.47
2023-02-15T02:38:59.750Z,102402.25
2023-02-15T02:41:44.498Z,102394.88
2023-02-15T02:44:18.426Z,102395.00
2023-02-15T02:46:53.742Z,102400.53
2023-02-15T02:49:37.810Z,102394.13
2023-02-15T02:52:07.932Z,102393.31
2023-02-15T02:54:36.556Z,102389.34
2023-02-15T02:57:05.620Z,102383.81
2023-02-15T02:59:35.062Z,102387.31
2023-02-15T03:02:33.177Z,102392.38
2023-02-15T03:05:04.641Z,102391.34
2023-02-15T03:07:32.793Z,102388.09
2023-02-15T03:10:01.767Z,102388.56
2023-02-15T03:12:30.958Z,102384.50
2023-02-15T03:15:05.281Z,102375.56
2023-02-15T03:17:32.982Z,102375.13
2023-02-15T03:20:04.305Z,102372.03
2023-02-15T03:22:41.764Z,102365.88
2023-02-15T03:25:12.418Z,102365.81
2023-02-15T03:27:42.303Z,102362.69
2023-02-15T03:30:10.164Z,102361.81
2023-02-15T03:32:37.555Z,102357.50
2023-02-15T03:35:04.529Z,102348.78
2023-02-15T03:37:44.864Z,102347.88
2023-02-15T03:40:36.153Z,102342.44
2023-02-15T03:43:18.282Z,102343.16
2023-02-15T03:45:55.521Z,102348.50
2023-02-15T03:48:25.882Z,102346.78
2023-02-15T03:51:14.149Z,102337.69
2023-02-15T03:53:41.292Z,102340.06
2023-02-15T03:56:07.876Z,102336.19
2023-02-15T03:58:53.181Z,102333.31
2023-02-15T04:01:57.070Z,102338.88
2023-02-15T04:04:27.258Z,102334.50
2023-02-15T04:06:53.885Z,102335.41
2023-02-15T04:09:39.124Z,102323.28
2023-02-15T04:12:07.452Z,102324.97
2023-02-15T04:14:52.908Z,102325.63
2023-02-15T04:17:19.496Z,102324.16
2023-02-15T04:20:04.746Z,102322.00
2023-02-15T04:22:49.834Z,102306.81
2023-02-15T04:25:16.480Z,102309.88
2023-02-15T04:27:51.295Z,102311.75
2023-02-15T04:30:19.496Z,102302.56
2023-02-15T04:32:46.378Z,102302.75
2023-02-15T04:35:13.718Z,102303.22
2023-02-15T04:37:41.350Z,102294.72
2023-02-15T04:40:10.406Z,102288.78
2023-02-15T04:42:37.171Z,102283.47
2023-02-15T04:45:04.201Z,102285.53
2023-02-15T04:47:31.293Z,102287.16
2023-02-15T04:49:58.253Z,102273.75
2023-02-15T04:52:25.728Z,102280.72
2023-02-15T04:54:52.414Z,102275.81
2023-02-15T04:57:19.071Z,102275.63
2023-02-15T04:59:45.712Z,102279.03
2023-02-15T05:02:15.375Z,102261.19
2023-02-15T05:04:42.023Z,102265.28
2023-02-15T05:07:08.728Z,102260.38
2023-02-15T05:09:35.410Z,102265.28
2023-02-15T05:12:02.114Z,102266.81
2023-02-15T05:14:28.832Z,102259.56
2023-02-15T05:16:55.528Z,102258.69
2023-02-15T05:19:24.181Z,102264.94
2023-02-15T05:21:50.789Z,102256.63
2023-02-15T05:24:36.160Z,102246.03
2023-02-15T05:27:21.479Z,102252.34
2023-02-15T05:29:48.137Z,102244.94
2023-02-15T05:32:15.300Z,102247.16
2023-02-15T05:34:42.125Z,102239.84
2023-02-15T05:37:09.363Z,102243.75
2023-02-15T05:39:35.977Z,102241.81
2023-02-15T05:42:03.393Z,102250.09
2023-02-15T05:44:30.436Z,102241.63
2023-02-15T05:46:57.017Z,102237.00
2023-02-15T05:49:23.731Z,102228.31
2023-02-15T05:51:50.357Z,102229.25
2023-02-15T05:54:17.334Z,102230.97
2023-02-15T05:56:43.969Z,102227.16
2023-02-15T05:59:10.744Z,102232.66
2023-02-15T06:01:37.361Z,102223.41
2023-02-15T06:04:06.170Z,102229.81
2023-02-15T06:06:32.777Z,102219.72
2023-02-15T06:08:59.403Z,102225.59
2023-02-15T06:11:26.031Z,102226.50
2023-02-15T06:13:53.007Z,102221.22
2023-02-15T06:16:19.776Z,102221.16
2023-02-15T06:18:46.473Z,102218.88
2023-02-15T06:21:13.224Z,102214.50
2023-02-15T06:23:39.873Z,102215.09
2023-02-15T06:26:06.503Z,102210.34
2023-02-15T06:28:33.804Z,102212.13
2023-02-15T06:31:00.489Z,102210.72
2023-02-15T06:33:27.223Z,102212.81
2023-02-15T06:35:53.886Z,102217.28
2023-02-15T06:38:21.423Z,102212.50
2023-02-15T06:40:50.740Z,102214.66
2023-02-15T06:43:17.368Z,102215.66
2023-02-15T06:45:44.072Z,102209.09
2023-02-15T06:48:13.530Z,102216.28
2023-02-15T06:50:40.662Z,102218.53
2023-02-15T06:53:07.386Z,102212.00
2023-02-15T06:55:35.202Z,102215.03
2023-02-15T06:58:05.033Z,102222.34
2023-02-15T07:00:31.669Z,102217.97
2023-02-15T07:02:59.688Z,102207.97
2023-02-15T07:05:32.058Z,102204.63
2023-02-15T07:07:59.742Z,102204.63
2023-02-15T07:10:27.327Z,102209.34
2023-02-15T07:12:54.506Z,102210.03
2023-02-15T07:15:21.970Z,102203.81
2023-02-15T07:17:49.557Z,102212.97
2023-02-15T07:20:19.574Z,102203.06
2023-02-15T07:22:46.361Z,102198.50
2023-02-15T07:25:14.016Z,102201.22
2023-02-15T07:27:41.205Z,102189.00
2023-02-15T07:30:10.316Z,102195.97
2023-02-15T07:32:37.069Z,102190.66
2023-02-15T07:35:03.755Z,102189.28
2023-02-15T07:37:30.394Z,102180.94
2023-02-15T07:39:57.127Z,102174.38
2023-02-15T07:42:24.059Z,102172.72
2023-02-15T07:44:51.036Z,102162.09
2023-02-15T07:47:17.700Z,102154.06
2023-02-15T07:49:44.554Z,102151.09
2023-02-15T07:52:11.329Z,102155.94
2023-02-15T07:54:37.991Z,102156.81
2023-02-15T07:57:05.383Z,102154.38
2023-02-15T07:59:32.312Z,102154.16
2023-02-15T08:01:58.969Z,102151.50
2023-02-15T08:04:25.629Z,102143.84
2023-02-15T08:06:55.921Z,102144.38
2023-02-15T08:09:22.932Z,102144.44
2023-02-15T08:11:50.157Z,102139.19
2023-02-15T08:14:21.369Z,102145.09
2023-02-15T08:16:50.310Z,102139.91
2023-02-15T08:19:25.592Z,102140.28
2023-02-15T08:21:54.608Z,102146.66
2023-02-15T08:24:23.282Z,102139.53
2023-02-15T08:26:50.988Z,102139.88
2023-02-15T08:29:19.867Z,102141.94
2023-02-15T08:31:46.943Z,102134.91
2023-02-15T08:34:17.158Z,102139.34
2023-02-15T08:36:46.069Z,102137.66
2023-02-15T08:39:14.498Z,102127.69
2023-02-15T08:41:43.946Z,102129.09
2023-02-15T08:44:11.694Z,102123.41
2023-02-15T08:46:40.471Z,102121.22
2023-02-15T08:49:07.147Z,102118.63
2023-02-15T08:51:36.201Z,102123.34
2023-02-15T08:54:08.200Z,102117.69
2023-02-15T08:56:37.053Z,102114.09
2023-02-15T08:59:04.553Z,102108.22
2023-02-15T09:01:33.256Z,102106.66
2023-02-15T09:04:02.491Z,102094.13
2023-02-15T09:06:29.656Z,102104.81
2023-02-15T09:08:57.193Z,102107.47
2023-02-15T09:11:31.831Z,102104.25
2023-02-15T09:14:14.593Z,102106.25
2023-02-15T09:16:43.092Z,102107.50
2023-02-15T09:19:09.911Z,102108.78
2023-02-15T09:21:38.998Z,102109.00
2023-02-15T09:24:13.374Z,102107.38
2023-02-15T09:26:42.148Z,102113.91
2023-02-15T09:29:09.820Z,102116.13
2023-02-15T09:31:42.518Z,102112.03
2023-02-15T09:34:09.435Z,102112.03
2023-02-15T09:36:38.487Z,102118.84
2023-02-15T09:39:17.024Z,102114.75
2023-02-15T09:42:02.547Z,102116.03
2023-02-15T09:44:44.531Z,102108.59
2023-02-15T09:47:23.329Z,102097.69
2023-02-15T09:50:03.437Z,102097.59
2023-02-15T09:53:01.266Z,102093.53
2023-02-15T09:55:40.264Z,102081.09
2023-02-15T09:58:28.781Z,102083.84
2023-02-15T10:01:14.461Z,102076.41
2023-02-15T10:03:59.773Z,102070.84
2023-02-15T10:06:57.897Z,102071.63
2023-02-15T10:09:43.679Z,102067.97
2023-02-15T10:12:32.711Z,102060.78
2023-02-15T10:15:14.842Z,102065.34
2023-02-15T10:18:04.990Z,102071.50
2023-02-15T10:20:41.330Z,102067.22
2023-02-15T10:23:28.203Z,102079.31
2023-02-15T10:26:06.215Z,102073.22
2023-02-15T10:28:47.628Z,102065.03
2023-02-15T10:31:25.805Z,102064.81
2023-02-15T10:34:04.244Z,102070.81
2023-02-15T10:36:41.604Z,102059.59
2023-02-15T10:39:10.838Z,102054.53
2023-02-15T10:42:05.308Z,102061.47
2023-02-15T10:44:44.315Z,102058.53
2023-02-15T10:47:29.010Z,102052.13
2023-02-15T10:50:17.902Z,102056.97
2023-02-15T10:53:15.705Z,102054.72
2023-02-15T10:56:08.093Z,102056.41
2023-02-15T10:58:53.203Z,102051.31
2023-02-15T11:01:43.118Z,102052.06
2023-02-15T11:04:45.415Z,102054.00
2023-02-15T11:07:22.930Z,102057.72
2023-02-15T11:09:58.218Z,102048.38
2023-02-15T11:12:26.104Z,102042.38
2023-02-15T11:15:17.572Z,102047.59
2023-02-15T11:17:48.274Z,102049.38
2023-02-15T11:20:24.380Z,102042.81
2023-02-15T11:23:19.641Z,102038.53
2023-02-15T11:25:53.787Z,102034.41
2023-02-15T11:28:24.724Z,102020.16
2023-02-15T11:30:55.863Z,102021.38
2023-02-15T11:33:27.579Z,102025.78
2023-02-15T11:35:59.592Z,102019.13
2023-02-15T11:38:30.084Z,102024.25
2023-02-15T11:41:01.099Z,102026.06
2023-02-15T11:43:43.066Z,102018.28
2023-02-15T11:46:12.957Z,102013.53
2023-02-15T11:48:40.159Z,102007.16
2023-02-15T11:51:10.045Z,102013.81
2023-02-15T11:53:38.786Z,102018.81
2023-02-15T11:56:07.193Z,102018.16
2023-02-15T11:58:38.753Z,102019.22
2023-02-15T12:01:33.582Z,102013.34
2023-02-15T12:04:22.799Z,102005.75
2023-02-15T12:06:54.561Z,101990.41
2023-02-15T12:09:42.247Z,101997.34
2023-02-15T12:12:27.382Z,101994.72
2023-02-15T12:14:56.457Z,101996.63
2023-02-15T12:17:26.077Z,102000.78
2023-02-15T12:19:54.338Z,101991.38
2023-02-15T12:22:26.859Z,101982.56
2023-02-15T12:25:00.554Z,101979.38
2023-02-15T12:27:34.468Z,101978.66
2023-02-15T12:30:22.602Z,101975.34
2023-02-15T12:32:52.938Z,101974.59
2023-02-15T12:35:29.025Z,101971.53
2023-02-15T12:37:58.342Z,101963.91
2023-02-15T12:40:31.330Z,101953.69
2023-02-15T12:42:58.756Z,101953.53
2023-02-15T12:45:33.832Z,101946.88
2023-02-15T12:48:17.318Z,101944.84
2023-02-15T12:50:55.042Z,101939.78
2023-02-15T12:53:24.567Z,101934.72
2023-02-15T12:56:08.578Z,101941.06
2023-02-15T12:58:39.949Z,101930.50
2023-02-15T13:01:09.676Z,101933.91
2023-02-15T13:03:36.994Z,101939.38
2023-02-15T13:06:08.288Z,101938.47
2023-02-15T13:08:39.315Z,101917.72
2023-02-15T13:11:11.058Z,101919.41
2023-02-15T13:13:56.007Z,101912.19
2023-02-15T13:16:31.608Z,101910.53
2023-02-15T13:18:58.785Z,101899.06
2023-02-15T13:21:28.112Z,101891.56
2023-02-15T13:24:02.604Z,101884.06
2023-02-15T13:26:32.968Z,101886.31
2023-02-15T13:29:30.042Z,101888.28
2023-02-15T13:31:59.129Z,101879.72
2023-02-15T13:34:37.517Z,101882.88
2023-02-15T13:37:11.573Z,101878.28
2023-02-15T13:39:46.133Z,101867.91
2023-02-15T13:42:24.315Z,101869.84
2023-02-15T13:45:24.395Z,101867.78
2023-02-15T13:48:02.283Z,101871.31
2023-02-15T13:50:35.662Z,101873.88
2023-02-15T13:53:08.221Z,101874.78
2023-02-15T13:55:39.929Z,101876.56
2023-02-15T13:58:24.908Z,101876.13
2023-02-15T14:00:59.593Z,101867.94
2023-02-15T14:03:39.140Z,101874.47
2023-02-15T14:06:38.164Z,101869.16
2023-02-15T14:09:35.755Z,101854.50
2023-02-15T14:12:27.355Z,101852.63
2023-02-15T14:15:01.434Z,101844.47
2023-02-15T14:17:47.238Z,101847.88
2023-02-15T14:20:32.017Z,101847.41
2023-02-15T14:23:12.117Z,101840.81
2023-02-15T14:25:49.473Z,101845.81
2023-02-15T14:28:27.548Z,101846.56
2023-02-15T14:30:54.474Z,101842.94
2023-02-15T14:33:38.800Z,101833.31
2023-02-15T14:36:08.174Z,101840.97
2023-02-15T14:39:41.929Z,101837.38
2023-02-15T14:42:19.347Z,101835.63
2023-02-15T14:45:13.877Z,101832.44
2023-02-15T14:47:44.736Z,101821.19
2023-02-15T14:50:38.303Z,101825.00
2023-02-15T14:53:32.067Z,101818.78
2023-02-15T14:56:19.156Z,101819.84
2023-02-15T14:58:53.198Z,101823.97
2023-02-15T15:02:09.299Z,101831.63
2023-02-15T15:04:38.820Z,101831.97
2023-02-15T15:07:13.103Z,101833.31
2023-02-15T15:09:41.736Z,101821.53
2023-02-15T15:12:23.583Z,101830.06
2023-02-15T15:14:52.895Z,101832.81
2023-02-15T15:17:39.218Z,101835.41
2023-02-15T15:20:19.253Z,101840.34
2023-02-15T15:22:45.931Z,101835.84
2023-02-15T15:25:42.041Z,101834.03
2023-02-15T15:28:08.883Z,101840.94
2023-02-15T15:30:35.547Z,101839.88
2023-02-15T15:33:30.721Z,101838.84
2023-02-15T15:36:27.150Z,101831.03
2023-02-15T15:38:59.881Z,101824.53
2023-02-15T15:41:54.461Z,101828.66
2023-02-15T15:45:12.069Z,101831.97
2023-02-15T15:47:38.703Z,101838.53
2023-02-15T15:50:14.153Z,101828.91
2023-02-15T15:52:45.447Z,101832.09
2023-02-15T15:55:18.352Z,101826.53
2023-02-15T15:57:49.359Z,101835.13
2023-02-15T16:00:32.210Z,101834.00
2023-02-15T16:02:58.940Z,101824.69
2023-02-15T16:05:25.981Z,101830.78
2023-02-15T16:07:52.643Z,101827.59
2023-02-15T16:10:27.786Z,101824.53
2023-02-15T16:12:55.767Z,101812.03
2023-02-15T16:15:32.075Z,101819.88
2023-02-15T16:17:59.794Z,101808.63
2023-02-15T16:20:33.016Z,101811.94
2023-02-15T16:23:13.730Z,101814.88
2023-02-15T16:26:03.991Z,101819.88
2023-02-15T16:28:30.923Z,101823.94
2023-02-15T16:31:08.588Z,101813.22
2023-02-15T16:33:38.449Z,101814.63
2023-02-15T16:36:08.805Z,101811.81
2023-02-15T16:38:41.470Z,101817.34
2023-02-15T16:41:08.461Z,101804.94
2023-02-15T16:43:35.177Z,101809.47
2023-02-15T16:46:06.524Z,101808.25
2023-02-15T16:48:34.716Z,101804.09
2023-02-15T16:51:01.931Z,101810.66
2023-02-15T16:53:29.788Z,101813.63
2023-02-15T16:55:58.518Z,101813.00
2023-02-15T16:58:39.333Z,101808.16
2023-02-15T17:01:08.821Z,101801.06
2023-02-15T17:03:36.758Z,101815.44
2023-02-15T17:06:04.499Z,101797.34
2023-02-15T17:08:38.048Z,101795.56
2023-02-15T17:11:19.253Z,101802.50
2023-02-15T17:14:05.076Z,101809.59
2023-02-15T17:16:34.300Z,101813.03
2023-02-15T17:19:03.229Z,101808.44
2023-02-15T17:21:33.877Z,101807.44
2023-02-15T17:24:02.305Z,101815.22
2023-02-15T17:26:32.055Z,101820.13
2023-02-15T17:29:12.358Z,101817.22
2023-02-15T17:31:39.260Z,101811.22
2023-02-15T17:34:06.137Z,101812.09
2023-02-15T17:36:32.962Z,101802.28
2023-02-15T17:38:59.626Z,101796.25
2023-02-15T17:41:28.253Z,101805.63
2023-02-15T17:43:54.905Z,101802.53
2023-02-15T17:46:24.894Z,101807.47
2023-02-15T17:48:53.179Z,101816.19
2023-02-15T17:51:20.729Z,101808.88
2023-02-15T17:54:07.117Z,101804.31
2023-02-15T17:56:34.710Z,101808.41
2023-02-15T17:59:01.452Z,101799.41
2023-02-15T18:01:46.795Z,101804.16
2023-02-15T18:04:33.645Z,101810.19
2023-02-15T18:07:18.916Z,101806.41
2023-02-15T18:10:04.218Z,101808.19
2023-02-15T18:12:36.698Z,101799.41
2023-02-15T18:15:03.768Z,101803.81
2023-02-15T18:17:34.616Z,101791.06
2023-02-15T18:20:05.591Z,101788.41
2023-02-15T18:22:32.929Z,101776.81
2023-02-15T18:24:59.674Z,101772.25
2023-02-15T18:27:26.278Z,101769.66
2023-02-15T18:29:52.890Z,101768.63
2023-02-15T18:32:29.427Z,101768.50
2023-02-15T18:34:57.680Z,101760.44
2023-02-15T18:37:25.536Z,101759.50
2023-02-15T18:39:54.266Z,101758.94
2023-02-15T18:42:26.988Z,101768.09
2023-02-15T18:44:58.634Z,101766.22
2023-02-15T18:47:25.512Z,101764.59
2023-02-15T18:49:52.277Z,101758.84
2023-02-15T18:52:24.352Z,101761.13
2023-02-15T18:54:55.137Z,101765.22
2023-02-15T18:57:21.873Z,101756.63
2023-02-15T18:59:48.510Z,101769.84
2023-02-15T19:02:17.714Z,101766.75
2023-02-15T19:04:45.231Z,101766.16
2023-02-15T19:07:29.879Z,101752.22
2023-02-15T19:09:56.866Z,101759.34
2023-02-15T19:12:23.745Z,101762.28
2023-02-15T19:14:52.942Z,101757.69
2023-02-15T19:17:21.533Z,101748.31
2023-02-15T19:19:48.259Z,101757.31
2023-02-15T19:22:30.376Z,101763.84
2023-02-15T19:25:00.311Z,101757.50
2023-02-15T19:27:34.910Z,101748.91
2023-02-15T19:30:03.682Z,101736.81
2023-02-15T19:32:31.165Z,101731.09
2023-02-15T19:34:57.826Z,101728.50
2023-02-15T19:37:35.101Z,101733.16
2023-02-15T19:40:02.030Z,101725.28
2023-02-15T19:42:28.870Z,101728.91
2023-02-15T19:44:55.531Z,101726.38
2023-02-15T19:47:22.177Z,101722.91
2023-02-15T19:49:48.827Z,101719.50
2023-02-15T19:52:21.043Z,101716.00
2023-02-15T19:54:48.397Z,101714.31
2023-02-15T19:57:15.004Z,101709.88
2023-02-15T19:59:42.142Z,101696.97
2023-02-15T20:02:18.081Z,101693.50
2023-02-15T20:04:44.871Z,101700.91
2023-02-15T20:07:28.469Z,101697.66
2023-02-15T20:09:55.421Z,101697.16
2023-02-15T20:12:26.267Z,101692.53
2023-02-15T20:14:53.137Z,101695.00
2023-02-15T20:17:19.977Z,101693.56
2023-02-15T20:19:46.758Z,101688.44
2023-02-15T20:22:24.300Z,101684.47
2023-02-15T20:24:51.770Z,101680.88
2023-02-15T20:27:18.939Z,101675.13
2023-02-15T20:29:45.559Z,101680.91
2023-02-15T20:32:12.622Z,101674.91
2023-02-15T20:34:39.420Z,101673.66
2023-02-15T20:37:06.232Z,101676.31
2023-02-15T20:39:35.108Z,101665.25
2023-02-15T20:42:02.106Z,101672.91
2023-02-15T20:44:31.267Z,101672.03
2023-02-15T20:47:00.375Z,101666.97
2023-02-15T20:49:27.860Z,101668.63
2023-02-15T20:51:56.297Z,101670.25
2023-02-15T20:54:24.517Z,101664.91
2023-02-15T20:56:56.845Z,101667.50
2023-02-15T20:59:32.008Z,101664.66
2023-02-15T21:02:02.154Z,101676.69
2023-02-15T21:04:32.808Z,101674.75
2023-02-15T21:07:00.718Z,101665.22
2023-02-15T21:09:28.507Z,101676.47
2023-02-15T21:11:59.184Z,101669.63
2023-02-15T21:14:27.143Z,101672.56
2023-02-15T21:16:54.187Z,101667.03
2023-02-15T21:19:22.597Z,101666.16
2023-02-15T21:21:51.484Z,101667.50
2023-02-15T21:24:28.763Z,101664.03
2023-02-15T21:27:01.244Z,101656.81
2023-02-15T21:29:30.391Z,101660.22
2023-02-15T21:32:01.397Z,101657.69
2023-02-15T21:34:29.787Z,101667.25
2023-02-15T21:36:56.485Z,101669.09
2023-02-15T21:39:30.653Z,101670.53
2023-02-15T21:42:22.241Z,101672.81
2023-02-15T21:45:09.709Z,101671.81
2023-02-15T21:47:51.677Z,101676.84
2023-02-15T21:50:40.292Z,101675.81
2023-02-15T21:53:13.154Z,101686.19
2023-02-15T21:55:39.822Z,101684.28
2023-02-15T21:58:06.710Z,101677.28
2023-02-15T22:00:35.002Z,101684.81
2023-02-15T22:03:05.132Z,101691.72
2023-02-15T22:05:33.905Z,101685.22
2023-02-15T22:08:00.914Z,101676.88
2023-02-15T22:10:32.736Z,101671.03
2023-02-15T22:13:03.592Z,101673.41
2023-02-15T22:15:37.062Z,101675.63
2023-02-15T22:18:05.199Z,101670.03
2023-02-15T22:20:32.178Z,101657.84
2023-02-15T22:22:59.090Z,101657.00
2023-02-15T22:25:27.060Z,101653.47
2023-02-15T22:27:54.354Z,101660.06
2023-02-15T22:30:24.008Z,101649.50
2023-02-15T22:32:50.664Z,101642.47
2023-02-15T22:35:21.254Z,101639.16
2023-02-15T22:37:48.127Z,101642.53
2023-02-15T22:40:16.372Z,101641.50
2023-02-15T22:42:47.042Z,101653.50
2023-02-15T22:45:19.279Z,101646.25
2023-02-15T22:47:50.858Z,101650.38
2023-02-15T22:50:22.801Z,101647.44
2023-02-15T22:52:50.038Z,101644.16
2023-02-15T22:55:22.213Z,101641.59
2023-02-15T22:57:51.652Z,101643.22
2023-02-15T23:00:26.826Z,101635.09
2023-02-15T23:02:54.733Z,101633.06
2023-02-15T23:05:24.569Z,101626.94
2023-02-15T23:07:51.420Z,101631.31
2023-02-15T23:10:22.587Z,101633.06
2023-02-15T23:13:12.218Z,101631.31
2023-02-15T23:15:39.839Z,101629.03
2023-02-15T23:18:19.280Z,101635.16
2023-02-15T23:20:49.456Z,101640.41
2023-02-15T23:23:16.463Z,101638.34
2023-02-15T23:25:43.420Z,101638.34
2023-02-15T23:28:22.829Z,101637.22
2023-02-15T23:30:49.577Z,101632.13
2023-02-15T23:33:16.436Z,101625.25
2023-02-15T23:35:43.096Z,101624.72
2023-02-15T23:38:18.957Z,101623.31
2023-02-15T23:41:11.253Z,101617.41
2023-02-15T23:43:40.974Z,101619.84
2023-02-15T23:46:08.396Z,101620.81
2023-02-15T23:48:37.783Z,101612.44
2023-02-15T23:51:06.364Z,101618.78
2023-02-15T23:53:33.209Z,101617.75
2023-02-15T23:56:00.002Z,101620.47
2023-02-15T23:58:38.136Z,101617.16
